createdAt,value
2023-04-11T00:00:39.834Z,3.50
2023-04-11T00:20:39.549Z,3.50
2023-04-11T00:40:39.286Z,3.20
2023-04-11T01:00:39.071Z,3.30
2023-04-11T01:20:38.766Z,2.00
2023-04-11T01:40:38.514Z,2.00
2023-04-11T02:00:38.268Z,0.70
2023-04-11T02:20:37.949Z,0.20
2023-04-11T02:40:37.675Z,1.40
2023-04-11T03:00:37.436Z,0.90
2023-04-11T03:20:37.127Z,0.80
2023-04-11T03:40:36.876Z,1.10
2023-04-11T04:00:36.587Z,1.60
2023-04-11T04:20:36.338Z,0.70
2023-04-11T04:40:36.047Z,2.40
2023-04-11T05:00:35.808Z,1.30
2023-04-11T05:20:35.516Z,1.70
2023-04-11T05:40:35.247Z,1.60
2023-04-11T06:00:34.967Z,0.90
2023-04-11T06:20:34.704Z,1.30
2023-04-11T06:40:34.444Z,0.40
2023-04-11T07:00:34.171Z,0.80
2023-04-11T07:20:33.898Z,2.00
2023-04-11T07:40:33.686Z,3.00
2023-04-11T08:00:33.397Z,2.60
2023-04-11T08:20:33.107Z,4.50
2023-04-11T08:40:32.825Z,2.20
2023-04-11T09:00:32.722Z,0.40
2023-04-11T09:20:32.307Z,0.70
2023-04-11T09:40:32.014Z,2.10
2023-04-11T10:00:31.728Z,0.90
2023-04-11T10:20:31.454Z,1.60
2023-04-11T10:40:31.193Z,1.90
2023-04-11T11:00:32.617Z,1.80
2023-04-11T11:20:30.637Z,1.10
2023-04-11T11:40:30.408Z,1.90
2023-04-11T12:00:30.100Z,4.50
2023-04-11T12:20:29.842Z,2.80
2023-04-11T12:40:29.595Z,1.30
2023-04-11T13:00:29.257Z,1.80
2023-04-11T13:20:29.004Z,0.80
2023-04-11T13:40:28.760Z,2.10
2023-04-11T14:00:28.452Z,1.20
2023-04-11T14:20:28.195Z,2.40
2023-04-11T14:40:27.910Z,1.30
2023-04-11T15:00:27.607Z,0.50
2023-04-11T15:20:27.361Z,3.00
2023-04-11T15:40:27.077Z,2.70
2023-04-11T16:00:26.790Z,2.20
2023-04-11T16:20:26.531Z,1.70
2023-04-11T16:40:26.244Z,1.30
2023-04-11T17:00:25.966Z,2.80
2023-04-11T17:20:25.667Z,3.50
2023-04-11T17:40:25.439Z,2.80
2023-04-11T18:00:25.149Z,3.50
2023-04-11T18:20:24.903Z,1.70
2023-04-11T18:40:24.625Z,2.40
2023-04-11T19:00:24.389Z,2.30
2023-04-11T19:20:24.101Z,2.20
2023-04-11T19:40:23.843Z,2.00
2023-04-11T20:00:23.555Z,4.30
2023-04-11T20:20:23.261Z,3.70
2023-04-11T20:40:23.021Z,5.50
2023-04-11T21:00:22.817Z,5.20
2023-04-11T21:20:22.624Z,2.80
2023-04-11T21:40:22.210Z,3.00
2023-04-11T22:00:21.920Z,3.60
2023-04-11T22:20:21.654Z,4.60
2023-04-11T22:40:21.404Z,4.60
2023-04-11T23:00:21.160Z,4.60
2023-04-11T23:20:20.862Z,5.80
2023-04-11T23:40:20.591Z,7.70
